Time;durP1;ratioP1;P1;durP2;ratioP2;P2;SDS_P1;SDS_P2;PMS_P1;PMS_P2;Temp;Humidity;BMP_temperature;BMP_pressure;BME280_temperature;BME280_humidity;BME280_pressure;Samples;Min_cycle;Max_cycle;Signal;HPM_P1;HPM_P2
2022/08/28 00:01:00;;;;;;;18.10;12.07;;;;;;;17.89;100.00;98894.47;5107645;28;20047;-77
2022/08/28 00:03:27;;;;;;;24.30;12.77;;;;;;;17.83;100.00;98895.41;5105745;28;20048;-78
2022/08/28 00:05:53;;;;;;;17.95;12.68;;;;;;;17.72;100.00;98907.22;5109243;28;20047;-77
2022/08/28 00:08:20;;;;;;;16.58;13.05;;;;;;;17.63;100.00;98914.97;5107320;28;20055;-77
2022/08/28 00:10:47;;;;;;;20.33;13.13;;;;;;;17.78;100.00;98909.88;5110096;28;20047;-78
2022/08/28 00:13:17;;;;;;;21.65;15.05;;;;;;;17.76;100.00;98909.25;5101073;28;20449;-77
2022/08/28 00:15:47;;;;;;;20.02;13.48;;;;;;;17.79;100.00;98911.50;5109674;28;20054;-77
2022/08/28 00:18:13;;;;;;;19.10;12.00;;;;;;;17.72;100.00;98909.97;5110123;27;20091;-77
2022/08/28 00:20:40;;;;;;;16.58;11.88;;;;;;;17.56;100.00;98915.09;5108726;28;20059;-77
2022/08/28 00:23:07;;;;;;;28.98;14.68;;;;;;;17.61;100.00;98906.97;5105707;27;20044;-77
2022/08/28 00:25:34;;;;;;;18.75;14.60;;;;;;;17.59;100.00;98908.28;5117665;27;20039;-77
2022/08/28 00:28:03;;;;;;;17.13;13.63;;;;;;;17.64;100.00;98906.50;5090504;28;20043;-77
2022/08/28 00:30:33;;;;;;;20.42;14.43;;;;;;;17.63;100.00;98912.22;5111208;27;20454;-77
2022/08/28 00:33:05;;;;;;;25.63;16.20;;;;;;;17.58;100.00;98909.34;5109131;28;20115;-77
2022/08/28 00:35:32;;;;;;;25.25;17.30;;;;;;;17.62;100.00;98916.88;5108604;28;20040;-77
2022/08/28 00:37:59;;;;;;;24.58;16.02;;;;;;;17.67;100.00;98913.44;5108132;28;20043;-77
2022/08/28 00:40:29;;;;;;;23.73;16.55;;;;;;;17.68;100.00;98912.38;5113933;27;20513;-77
2022/08/28 00:42:56;;;;;;;24.50;16.45;;;;;;;17.65;100.00;98910.09;5100417;27;20077;-77
2022/08/28 00:45:24;;;;;;;21.98;15.90;;;;;;;17.63;100.00;98917.72;5107825;28;21071;-77
2022/08/28 00:47:51;;;;;;;23.75;16.23;;;;;;;17.71;100.00;98902.81;5107179;27;20479;-77
2022/08/28 00:50:22;;;;;;;22.83;16.20;;;;;;;17.62;100.00;98914.13;5108989;28;20384;-77
2022/08/28 00:52:52;;;;;;;23.63;15.75;;;;;;;17.64;100.00;98906.50;5108193;28;20055;-78
2022/08/28 00:55:21;;;;;;;25.58;15.93;;;;;;;17.65;100.00;98896.34;5106099;28;20056;-77
2022/08/28 00:57:51;;;;;;;23.40;15.70;;;;;;;17.63;100.00;98893.84;5108905;27;20047;-77
2022/08/28 01:00:20;;;;;;;20.90;14.70;;;;;;;17.48;100.00;98896.22;5111802;27;20051;-77
2022/08/28 01:02:47;;;;;;;21.88;14.65;;;;;;;17.44;100.00;98909.56;5106281;28;20100;-78
2022/08/28 01:05:15;;;;;;;26.50;15.48;;;;;;;17.45;100.00;98904.94;5103076;28;20055;-77
2022/08/28 01:07:44;;;;;;;20.20;15.27;;;;;;;17.45;100.00;98904.94;5111560;28;20051;-77
2022/08/28 01:10:14;;;;;;;26.23;15.63;;;;;;;17.40;100.00;98913.03;5108131;28;20048;-77
2022/08/28 01:12:41;;;;;;;22.65;15.85;;;;;;;17.44;100.00;98909.56;5088116;28;20055;-77
2022/08/28 01:15:13;;;;;;;24.48;14.75;;;;;;;17.48;100.00;98905.28;5106569;27;20099;-77
2022/08/28 01:17:43;;;;;;;23.05;13.95;;;;;;;17.31;100.00;98904.28;5111190;27;20131;-77
2022/08/28 01:20:14;;;;;;;26.77;16.55;;;;;;;17.40;100.00;98911.09;5107911;28;20646;-77
2022/08/28 01:22:50;;;;;;;26.17;15.18;;;;;;;17.34;100.00;98907.41;5112486;27;20051;-77
2022/08/28 01:25:21;;;;;;;22.08;15.80;;;;;;;17.29;100.00;98912.75;5105359;28;20139;-77
2022/08/28 01:27:47;;;;;;;;;;;;;;;17.36;100.00;98906.31;5112270;28;20047;-77
2022/08/28 01:30:17;;;;;;;29.48;17.17;;;;;;;17.31;100.00;98905.13;5103739;28;19924;-77
2022/08/28 01:32:46;;;;;;;27.30;16.58;;;;;;;17.37;100.00;98911.56;5104842;27;20380;-77
2022/08/28 01:35:15;;;;;;;30.38;18.10;;;;;;;17.42;100.00;98899.88;5107515;28;20100;-77
2022/08/28 01:37:42;;;;;;;33.65;19.35;;;;;;;17.40;100.00;98905.59;5106240;28;20097;-77
2022/08/28 01:40:12;;;;;;;27.98;17.35;;;;;;;17.40;100.00;98900.13;5107023;28;20483;-77
2022/08/28 01:42:42;;;;;;;27.70;18.17;;;;;;;17.40;100.00;98899.28;5105311;28;20055;-77
2022/08/28 01:45:12;;;;;;;27.58;18.42;;;;;;;17.49;100.00;98900.63;5108636;28;20047;-77
2022/08/28 01:47:40;;;;;;;28.85;17.20;;;;;;;17.40;100.00;98900.13;5106746;28;20688;-77
2022/08/28 01:50:09;;;;;;;24.52;17.20;;;;;;;17.45;100.00;98902.19;5111161;27;20050;-77
2022/08/28 01:52:36;;;;;;;26.90;16.90;;;;;;;17.51;100.00;98903.97;5112847;27;20425;-77
2022/08/28 01:55:03;;;;;;;26.70;17.05;;;;;;;17.57;100.00;98905.78;5114662;27;20118;-77
2022/08/28 01:57:29;;;;;;;28.73;18.65;;;;;;;17.61;100.00;98898.72;5107209;28;20047;-77
2022/08/28 01:59:57;;;;;;;29.15;19.25;;;;;;;17.50;100.00;98914.13;5108073;27;20055;-77
2022/08/28 02:02:24;;;;;;;27.75;15.93;;;;;;;17.48;100.00;98908.03;5118248;27;21132;-77
2022/08/28 02:04:51;;;;;;;21.63;15.70;;;;;;;17.41;100.00;98910.03;5109946;27;20051;-77
2022/08/28 02:07:17;;;;;;;22.73;15.85;;;;;;;17.40;100.00;98907.53;5107650;27;20058;-77
2022/08/28 02:09:44;;;;;;;23.80;16.08;;;;;;;17.38;100.00;98913.25;5107937;27;20379;-77
2022/08/28 02:12:10;;;;;;;27.25;15.93;;;;;;;17.38;100.00;98915.19;5108630;27;20051;-77
2022/08/28 02:14:37;;;;;;;22.15;15.90;;;;;;;17.42;100.00;98908.97;5104182;27;20062;-77
2022/08/28 02:17:05;;;;;;;24.33;16.25;;;;;;;17.48;100.00;98912.69;5107691;27;20050;-77
2022/08/28 02:19:31;;;;;;;26.40;16.40;;;;;;;17.54;100.00;98910.91;5103957;28;20043;-77
2022/08/28 02:21:58;;;;;;;29.60;14.80;;;;;;;17.61;100.00;98917.13;5103521;28;20113;-77
2022/08/28 02:24:24;;;;;;;31.52;17.38;;;;;;;17.59;100.00;98916.53;5105928;28;20100;-77
2022/08/28 02:26:51;;;;;;;23.33;15.73;;;;;;;17.66;100.00;98923.59;5111387;27;20490;-77
2022/08/28 02:29:17;;;;;;;21.85;15.52;;;;;;;17.62;100.00;98919.63;5103317;28;20063;-77
2022/08/28 02:31:44;;;;;;;23.42;14.90;;;;;;;17.54;100.00;98917.25;5101465;28;20079;-77
2022/08/28 02:34:12;;;;;;;24.13;14.93;;;;;;;17.56;100.00;98915.09;5103040;28;20100;-77
2022/08/28 02:36:41;;;;;;;18.95;14.90;;;;;;;17.65;100.00;98912.84;5105287;28;20051;-77
2022/08/28 02:39:07;;;;;;;28.73;17.45;;;;;;;17.61;100.00;98925.38;5107769;28;20043;-77
2022/08/28 02:41:34;;;;;;;25.80;16.17;;;;;;;17.55;100.00;98918.06;5110525;28;20046;-77
2022/08/28 02:44:01;;;;;;;25.13;16.15;;;;;;;17.48;100.00;98912.69;5108238;28;20130;-77
2022/08/28 02:46:27;;;;;;;27.70;17.20;;;;;;;17.56;100.00;98926.09;5110693;28;20050;-78
2022/08/28 02:48:55;;;;;;;25.20;17.75;;;;;;;17.56;100.00;98917.84;5108766;28;20051;-77
2022/08/28 02:51:23;;;;;;;25.42;16.70;;;;;;;17.60;100.00;98924.53;5110113;28;20120;-77
2022/08/28 02:53:50;;;;;;;24.13;16.65;;;;;;;17.53;100.00;98915.56;5109882;28;20100;-77
2022/08/28 02:56:17;;;;;;;23.20;17.00;;;;;;;17.62;100.00;98918.81;5107875;28;20416;-77
2022/08/28 02:58:44;;;;;;;25.13;16.85;;;;;;;17.56;100.00;98920.59;5108390;28;20048;-77
2022/08/28 03:01:12;;;;;;;24.70;16.30;;;;;;;17.64;100.00;98911.16;5107898;28;20093;-77
2022/08/28 03:03:39;;;;;;;27.30;17.15;;;;;;;17.65;100.00;98924.66;5108279;28;20048;-77
2022/08/28 03:06:07;;;;;;;25.75;17.15;;;;;;;17.76;100.00;98922.16;5108551;28;20483;-77
2022/08/28 03:08:35;;;;;;;24.38;16.73;;;;;;;17.69;100.00;98917.63;5103859;28;20059;-77
2022/08/28 03:11:01;;;;;;;23.67;16.95;;;;;;;17.75;100.00;98918.59;5109206;28;20139;-77
2022/08/28 03:13:28;;;;;;;31.20;18.27;;;;;;;17.75;100.00;98918.59;5105911;28;20610;-77
2022/08/28 03:15:55;;;;;;;24.42;17.08;;;;;;;17.76;100.00;98909.25;5105065;28;20131;-77
2022/08/28 03:18:23;;;;;;;28.35;17.23;;;;;;;17.68;100.00;98912.38;5106647;28;20055;-77
2022/08/28 03:20:50;;;;;;;24.55;16.95;;;;;;;17.68;100.00;98913.19;5109065;28;20055;-77
2022/08/28 03:23:29;;;;;;;29.90;16.77;;;;;;;17.68;100.00;98912.38;5108325;28;20134;-77
2022/08/28 03:25:59;;;;;;;26.95;18.48;;;;;;;17.69;100.00;98909.38;5107620;28;20067;-77
2022/08/28 03:28:27;;;;;;;26.10;17.55;;;;;;;17.63;100.00;98914.97;5106977;28;20494;-77
2022/08/28 03:30:54;;;;;;;34.63;18.40;;;;;;;17.66;100.00;98911.78;5109085;28;20552;-77
2022/08/28 03:33:21;;;;;;;29.65;17.52;;;;;;;17.68;100.00;98909.63;5107271;28;20043;-77
2022/08/28 03:35:48;;;;;;;25.83;16.83;;;;;;;17.72;100.00;98910.81;5108893;28;20445;-77
2022/08/28 03:38:15;;;;;;;31.25;17.42;;;;;;;17.65;100.00;98910.91;5106832;28;20785;-77
2022/08/28 03:40:44;;;;;;;28.55;17.40;;;;;;;17.65;100.00;98913.66;5106029;28;20051;-77
2022/08/28 03:43:13;;;;;;;29.35;17.17;;;;;;;17.64;100.00;98924.91;5108964;28;20248;-77
2022/08/28 03:45:41;;;;;;;27.60;16.90;;;;;;;17.59;100.00;98916.53;5108985;28;20043;-77
2022/08/28 03:48:08;;;;;;;25.90;17.02;;;;;;;17.58;100.00;98923.09;5111518;28;20036;-77
2022/08/28 03:50:35;;;;;;;27.42;18.60;;;;;;;17.59;100.00;98925.59;5110443;28;20050;-77
2022/08/28 03:53:02;;;;;;;31.42;17.10;;;;;;;17.64;100.00;98917.50;5110940;28;20142;-77
2022/08/28 03:55:29;;;;;;;25.45;18.00;;;;;;;17.66;100.00;98920.03;5113370;28;20310;-77
2022/08/28 03:57:55;;;;;;;23.45;16.50;;;;;;;17.62;100.00;98925.13;5112568;28;20048;-77
2022/08/28 04:00:25;;;;;;;27.60;18.23;;;;;;;17.66;100.00;98925.50;5110574;28;20115;-77
2022/08/28 04:02:52;;;;;;;30.92;19.27;;;;;;;17.70;100.00;98932.19;5109816;28;20043;-77
2022/08/28 04:05:19;;;;;;;27.45;17.15;;;;;;;17.64;100.00;98928.50;5113072;28;20129;-77
2022/08/28 04:07:45;;;;;;;24.67;17.65;;;;;;;17.72;100.00;98931.97;5111962;28;20056;-77
2022/08/28 04:10:12;;;;;;;24.83;18.05;;;;;;;17.65;100.00;98932.06;5110580;28;20048;-77
2022/08/28 04:12:38;;;;;;;30.63;18.98;;;;;;;17.63;100.00;98926.81;5111247;28;20051;-77
2022/08/28 04:15:06;;;;;;;28.17;17.45;;;;;;;17.68;100.00;98929.69;5111895;28;20047;-77
2022/08/28 04:17:34;;;;;;;30.95;18.05;;;;;;;17.71;100.00;98933.88;5111278;28;20043;-77
2022/08/28 04:20:01;;;;;;;28.48;18.33;;;;;;;17.66;100.00;98931.00;5107059;28;20052;-77
2022/08/28 04:22:29;;;;;;;30.27;16.75;;;;;;;17.60;100.00;98938.28;5111512;28;20044;-77
2022/08/28 04:24:55;;;;;;;25.48;16.00;;;;;;;17.63;100.00;98929.56;5111599;28;20043;-77
2022/08/28 04:27:22;;;;;;;27.88;16.33;;;;;;;17.68;100.00;98939.84;5111728;28;20101;-77
2022/08/28 04:29:48;;;;;;;33.95;18.60;;;;;;;17.62;100.00;98941.63;5108726;28;20461;-77
2022/08/28 04:32:15;;;;;;;27.70;17.33;;;;;;;17.65;100.00;98943.06;5110343;27;20082;-77
2022/08/28 04:34:43;;;;;;;29.20;16.17;;;;;;;17.61;100.00;98937.19;5110907;28;20048;-77
2022/08/28 04:37:09;;;;;;;29.45;16.42;;;;;;;17.64;100.00;98939.50;5110202;28;20055;-77
2022/08/28 04:39:35;;;;;;;25.60;17.08;;;;;;;17.65;100.00;98937.56;5110324;28;20044;-77
2022/08/28 04:42:02;;;;;;;28.15;16.42;;;;;;;17.67;100.00;98946.41;5103656;28;20048;-77
2022/08/28 04:44:29;;;;;;;26.52;15.20;;;;;;;17.66;100.00;98945.59;5110988;28;20608;-77
2022/08/28 04:46:55;;;;;;;28.42;16.13;;;;;;;17.60;100.00;98943.78;5111357;28;20076;-77
2022/08/28 04:49:22;;;;;;;25.23;15.75;;;;;;;17.58;100.00;98951.41;5109941;28;20044;-77
2022/08/28 04:51:50;;;;;;;26.45;16.08;;;;;;;17.53;100.00;98943.03;5107673;28;20052;-77
2022/08/28 04:54:16;;;;;;;21.52;15.68;;;;;;;17.60;100.00;98938.28;5108863;28;20134;-77
2022/08/28 04:56:43;;;;;;;23.83;15.35;;;;;;;17.64;100.00;98941.38;5111048;28;20077;-77
2022/08/28 04:59:10;;;;;;;27.05;16.60;;;;;;;17.72;100.00;98945.69;5109253;28;20039;-77
2022/08/28 05:01:37;;;;;;;24.35;15.68;;;;;;;17.67;100.00;98944.53;5111222;28;20534;-77
2022/08/28 05:04:04;;;;;;;24.10;15.63;;;;;;;17.50;100.00;98951.75;5110147;28;20113;-77
2022/08/28 05:06:32;;;;;;;22.38;15.02;;;;;;;17.54;100.00;98949.38;5103598;27;20059;-77
2022/08/28 05:09:02;;;;;;;24.17;14.55;;;;;;;17.59;100.00;98949.53;5104924;27;20457;-77
2022/08/28 05:11:31;;;;;;;21.10;14.43;;;;;;;17.63;100.00;98957.06;5108657;28;20063;-77
2022/08/28 05:13:57;;;;;;;23.40;14.60;;;;;;;17.72;100.00;98954.81;5107998;28;20063;-77
2022/08/28 05:16:24;;;;;;;22.67;15.10;;;;;;;17.78;100.00;98956.59;5108447;28;20052;-77
2022/08/28 05:18:50;;;;;;;25.80;13.88;;;;;;;17.83;100.00;98959.47;5107111;28;20047;-77
2022/08/28 05:21:20;;;;;;;25.25;14.95;;;;;;;17.75;100.00;98964.47;5107437;28;20047;-77
2022/08/28 05:23:47;;;;;;;20.63;14.20;;;;;;;17.73;100.00;98961.97;5107974;28;20048;-77
2022/08/28 05:26:18;;;;;;;19.48;14.20;;;;;;;17.69;100.00;98964.34;5103497;28;20144;-77
2022/08/28 05:28:45;;;;;;;19.58;14.35;;;;;;;17.75;100.00;98965.31;5109671;28;20051;-77
2022/08/28 05:31:14;;;;;;;26.63;14.60;;;;;;;17.77;100.00;98959.59;5109145;28;21379;-77
2022/08/28 05:33:41;;;;;;;19.33;14.25;;;;;;;17.72;100.00;98959.44;5109512;28;20047;-77
2022/08/28 05:36:09;;;;;;;21.65;15.00;;;;;;;17.79;100.00;98966.50;5108861;28;20040;-77
2022/08/28 05:38:35;;;;;;;27.92;15.63;;;;;;;17.83;100.00;98964.13;5108469;28;20168;-77
2022/08/28 05:41:03;;;;;;;25.42;14.88;;;;;;;17.81;100.00;98971.78;5108294;28;20043;-77
2022/08/28 05:43:31;;;;;;;24.85;14.77;;;;;;;17.84;100.00;98965.81;5108272;28;20575;-77
2022/08/28 05:45:58;;;;;;;24.42;16.75;;;;;;;17.80;100.00;98968.19;5108932;28;20128;-77
2022/08/28 05:48:26;;;;;;;21.58;15.23;;;;;;;17.80;100.00;98981.13;5107941;28;20093;-77
2022/08/28 05:50:52;;;;;;;25.50;14.23;;;;;;;17.74;100.00;98980.13;5108283;28;20075;-77
2022/08/28 05:53:19;;;;;;;27.02;14.57;;;;;;;17.70;100.00;98976.19;5108800;28;20100;-77
2022/08/28 05:55:45;;;;;;;26.30;14.93;;;;;;;17.73;100.00;98978.44;5110241;28;20051;-77
2022/08/28 05:58:31;;;;;;;22.17;14.93;;;;;;;17.80;100.00;98979.19;5104094;28;20043;-77
2022/08/28 06:01:06;;;;;;;23.15;14.38;;;;;;;17.84;100.00;98990.56;5106869;28;20526;-78
2022/08/28 06:03:33;;;;;;;24.92;14.27;;;;;;;17.82;100.00;98985.28;5102502;28;20084;-77
2022/08/28 06:06:00;;;;;;;23.92;14.45;;;;;;;17.79;100.00;98988.50;5110945;28;20051;-76
2022/08/28 06:08:27;;;;;;;20.33;14.52;;;;;;;17.91;100.00;98991.31;5111483;28;20047;-76
2022/08/28 06:10:53;;;;;;;19.33;13.43;;;;;;;18.03;100.00;98983.06;5111824;28;20089;-76
2022/08/28 06:13:20;;;;;;;23.25;14.63;;;;;;;18.07;100.00;98978.78;5106215;28;20039;-76
2022/08/28 06:15:47;;;;;;;20.08;13.23;;;;;;;18.09;100.00;98981.28;5103516;28;20096;-76
2022/08/28 06:18:16;;;;;;;19.63;14.35;;;;;;;18.13;100.00;98979.75;5106361;28;20435;-76
2022/08/28 06:20:45;;;;;;;24.00;14.23;;;;;;;18.15;100.00;98989.41;5107145;28;20039;-76
2022/08/28 06:23:14;;;;;;;19.85;13.20;;;;;;;18.26;100.00;98985.00;5103892;28;20054;-76
2022/08/28 06:25:44;;;;;;;24.73;13.13;;;;;;;18.33;100.00;98985.69;5103996;28;20487;-76
2022/08/28 06:28:13;;;;;;;19.65;13.57;;;;;;;18.31;100.00;98984.28;5082545;28;20142;-76
2022/08/28 06:30:41;;;;;;;21.30;12.43;;;;;;;18.30;100.00;98993.59;5107852;28;20093;-76
2022/08/28 06:33:08;;;;;;;20.83;13.20;;;;;;;18.30;100.00;98988.94;5103094;28;20040;-76
2022/08/28 06:35:40;;;;;;;20.30;13.27;;;;;;;18.29;100.00;98986.41;5107314;28;20052;-76
2022/08/28 06:38:07;;;;;;;20.25;12.65;;;;;;;18.41;100.00;98992.75;5106683;28;20113;-76
2022/08/28 06:40:39;;;;;;;17.67;11.80;;;;;;;18.51;100.00;98992.16;5106408;28;20048;-76
2022/08/28 06:43:06;;;;;;;18.30;12.32;;;;;;;18.43;100.00;98987.88;5107989;28;20144;-76
2022/08/28 06:45:32;;;;;;;25.92;13.45;;;;;;;18.43;100.00;98990.63;5109953;28;20058;-76
2022/08/28 06:47:59;;;;;;;15.77;11.02;;;;;;;18.64;100.00;99000.16;5105610;28;20101;-76
2022/08/28 06:50:25;;;;;;;18.85;11.38;;;;;;;18.63;100.00;98998.47;5107398;28;20441;-77
2022/08/28 06:52:53;;;;;;;21.55;11.63;;;;;;;18.70;100.00;98998.38;5107825;28;20464;-76
2022/08/28 06:55:19;;;;;;;16.08;10.93;;;;;;;18.92;100.00;99004.06;5108908;28;20468;-77
2022/08/28 06:57:46;;;;;;;16.38;11.02;;;;;;;18.92;100.00;99007.69;5105643;28;20093;-77
2022/08/28 07:00:13;;;;;;;14.18;10.95;;;;;;;19.17;100.00;99006.53;5109419;28;20040;-76
2022/08/28 07:02:40;;;;;;;16.08;10.85;;;;;;;19.39;100.00;99008.59;5107509;28;20437;-77
2022/08/28 07:05:07;;;;;;;12.43;9.00;;;;;;;19.36;100.00;99006.31;5101224;28;20414;-77
2022/08/28 07:07:34;;;;;;;17.40;10.43;;;;;;;19.36;100.00;99014.59;5103892;28;20055;-76
2022/08/28 07:10:01;;;;;;;13.07;9.65;;;;;;;19.52;100.00;99008.28;5105851;28;20459;-77
2022/08/28 07:12:28;;;;;;;16.65;10.00;;;;;;;19.59;100.00;99013.66;5109208;28;20051;-77
2022/08/28 07:14:55;;;;;;;21.00;10.15;;;;;;;19.63;100.00;99012.91;5106636;28;20571;-77
2022/08/28 07:17:21;;;;;;;12.38;9.63;;;;;;;19.68;100.00;99023.19;5108032;28;20093;-77
2022/08/28 07:19:48;;;;;;;12.13;9.27;;;;;;;19.77;100.00;99021.75;5111667;28;20089;-77
2022/08/28 07:22:14;;;;;;;15.57;8.52;;;;;;;19.68;100.00;99025.13;5110968;28;20124;-77
2022/08/28 07:24:41;;;;;;;15.93;8.38;;;;;;;19.75;100.00;99018.38;5109861;28;20071;-77
2022/08/28 07:27:09;;;;;;;13.77;7.88;;;;;;;19.91;100.00;99029.69;5110647;28;20044;-77
2022/08/28 07:29:35;;;;;;;14.43;8.10;;;;;;;19.93;100.00;99030.28;5110808;28;20040;-77
2022/08/28 07:32:02;;;;;;;15.45;8.20;;;;;;;19.84;100.00;99027.09;5107786;28;20043;-77
2022/08/28 07:34:29;;;;;;;13.40;8.68;;;;;;;19.89;100.00;99029.94;5108378;28;20070;-77
2022/08/28 07:37:02;;;;;;;15.55;8.30;;;;;;;19.99;100.00;99040.31;5107904;28;20039;-77
2022/08/28 07:39:29;;;;;;;14.63;7.85;;;;;;;19.98;100.00;99027.63;5108953;28;20071;-77
2022/08/28 07:41:56;;;;;;;12.48;7.80;;;;;;;20.00;100.00;99033.72;5111706;28;20067;-77
2022/08/28 07:47:10;;;;;;;12.50;7.82;;;;;;;19.89;100.00;99048.44;5105356;28;20056;-78
2022/08/28 07:49:37;;;;;;;14.73;8.23;;;;;;;19.91;100.00;99041.56;5112201;28;20101;-78
2022/08/28 07:52:04;;;;;;;11.45;7.65;;;;;;;19.90;100.00;99048.19;5112179;28;20043;-78
2022/08/28 07:54:31;;;;;;;15.07;7.70;;;;;;;19.98;100.00;99053.28;5110455;28;20506;-78
2022/08/28 07:56:57;;;;;;;13.90;7.45;;;;;;;20.18;100.00;99048.38;5112211;28;20487;-78
2022/08/28 07:59:25;;;;;;;16.80;8.07;;;;;;;20.12;100.00;99053.78;5112332;28;20050;-77
2022/08/28 08:01:52;;;;;;;15.77;7.80;;;;;;;20.11;100.00;99051.28;5109521;28;20055;-78
2022/08/28 08:04:20;;;;;;;11.48;7.13;;;;;;;20.40;100.00;99049.28;5108188;28;20552;-78
2022/08/28 08:06:47;;;;;;;14.85;8.10;;;;;;;20.54;100.00;99051.69;5106980;28;20096;-78
2022/08/28 08:09:15;;;;;;;13.98;7.68;;;;;;;20.41;100.00;99056.44;5110644;28;20073;-78
2022/08/28 08:11:42;;;;;;;13.90;7.88;;;;;;;20.54;100.00;99063.56;5109555;28;20047;-78
2022/08/28 08:14:09;;;;;;;13.27;7.15;;;;;;;20.76;100.00;99052.59;5108175;28;20498;-79
2022/08/28 08:16:40;;;;;;;12.02;7.65;;;;;;;20.92;100.00;99058.31;5106935;28;20046;-78
2022/08/28 08:19:08;;;;;;;17.35;7.22;;;;;;;21.04;99.46;99050.75;5109605;28;20044;-78
2022/08/28 08:21:36;;;;;;;10.85;7.63;;;;;;;21.06;98.60;99059.59;5089056;28;20499;-79
2022/08/28 08:24:03;;;;;;;9.90;7.15;;;;;;;21.18;96.28;99060.34;5113151;28;20070;-78
2022/08/28 08:26:29;;;;;;;13.02;7.07;;;;;;;21.18;95.60;99068.63;5114368;28;20047;-79
2022/08/28 08:28:57;;;;;;;12.63;6.82;;;;;;;21.18;97.40;99065.00;5108218;28;20043;-78
2022/08/28 08:31:26;;;;;;;11.75;6.63;;;;;;;21.28;97.04;99078.16;5111056;28;20056;-79
2022/08/28 08:33:58;;;;;;;15.50;7.25;;;;;;;21.21;94.71;99075.56;5110767;28;20047;-78
2022/08/28 08:36:26;;;;;;;12.82;6.90;;;;;;;20.97;96.70;99077.72;5110587;28;20051;-78
2022/08/28 08:38:53;;;;;;;9.52;6.35;;;;;;;21.02;99.34;99070.34;5111367;28;20089;-79
2022/08/28 08:41:24;;;;;;;13.18;7.38;;;;;;;21.17;95.61;99080.78;5106327;28;20044;-79
2022/08/28 08:43:57;;;;;;;11.90;6.60;;;;;;;21.09;96.60;99078.47;5110534;28;20036;-81
2022/08/28 08:46:32;;;;;;;11.85;6.70;;;;;;;21.24;96.86;99075.03;5109435;28;20058;-80
2022/08/28 08:49:09;;;;;;;14.65;7.00;;;;;;;21.28;96.32;99075.38;5108380;28;20067;-79
2022/08/28 08:51:41;;;;;;;12.18;8.63;;;;;;;21.50;95.53;99087.28;5112000;28;20048;-79
2022/08/28 08:54:11;;;;;;;13.90;7.15;;;;;;;21.59;93.71;99082.16;5107992;28;20139;-79
2022/08/28 08:56:39;;;;;;;;;;;;;;;21.63;91.21;99079.69;5112723;28;20047;-79
2022/08/28 08:59:10;;;;;;;13.35;6.45;;;;;;;21.62;89.61;99084.41;5110610;28;20287;-80
2022/08/28 09:01:43;;;;;;;12.45;6.60;;;;;;;21.59;91.14;99089.59;5103288;28;20082;-79
2022/08/28 09:04:23;;;;;;;10.50;5.93;;;;;;;21.88;88.74;99085.50;5107079;28;20043;-79
2022/08/28 09:06:52;;;;;;;13.38;6.72;;;;;;;21.87;89.27;99086.56;5113382;28;20372;-79
2022/08/28 09:09:27;;;;;;;9.77;6.90;;;;;;;22.03;87.87;99089.50;5105648;28;20043;-79
2022/08/28 09:11:58;;;;;;;8.77;6.82;;;;;;;22.15;88.77;99083.81;5111328;28;20167;-79
2022/08/28 09:14:36;;;;;;;14.02;7.25;;;;;;;22.15;86.06;99098.47;5111046;28;20052;-79
2022/08/28 09:17:05;;;;;;;12.70;7.10;;;;;;;22.08;87.07;99097.84;5107531;28;20051;-79
2022/08/28 09:19:33;;;;;;;12.70;6.27;;;;;;;21.98;86.83;99101.38;5113760;28;20050;-79
2022/08/28 09:22:00;;;;;;;11.88;6.72;;;;;;;22.26;85.97;99097.47;5110857;28;20437;-79
2022/08/28 09:24:30;;;;;;;13.23;6.88;;;;;;;22.41;84.35;99095.97;5104241;28;20391;-79
2022/08/28 09:26:58;;;;;;;;;;;;;;;22.47;84.07;99099.63;5109503;28;20086;-79
2022/08/28 09:29:29;;;;;;;12.05;6.40;;;;;;;22.64;82.39;99100.28;5107345;28;19926;-79
2022/08/28 09:32:18;;;;;;;14.48;6.55;;;;;;;22.63;84.64;99093.91;5104449;28;20043;-78
2022/08/28 09:35:00;;;;;;;13.68;5.82;;;;;;;23.00;81.30;99105.25;5109454;28;20054;-78
2022/08/28 09:37:30;;;;;;;9.38;6.05;;;;;;;23.08;79.02;99101.94;5108880;28;20054;-79
2022/08/28 09:40:18;;;;;;;11.18;6.15;;;;;;;22.95;80.46;99111.59;5105715;28;20071;-78
2022/08/28 09:45:44;;;;;;;9.82;5.38;;;;;;;22.85;80.91;99100.44;5107735;28;20071;-79
2022/08/28 09:48:20;;;;;;;10.70;6.15;;;;;;;23.05;77.88;99106.09;5107098;28;20383;-79
2022/08/28 09:50:58;;;;;;;10.02;5.97;;;;;;;23.11;80.03;99110.59;5108063;28;20044;-82
2022/08/28 09:53:29;;;;;;;11.23;5.68;;;;;;;23.11;80.17;99098.69;5112510;28;20463;-84
2022/08/28 09:56:04;;;;;;;10.82;6.18;;;;;;;23.19;76.91;99098.16;5100699;28;20054;-83
2022/08/28 09:58:34;;;;;;;10.32;6.68;;;;;;;23.16;77.98;99093.16;5111768;28;20044;-80
2022/08/28 10:01:11;;;;;;;14.80;6.63;;;;;;;23.06;77.61;99101.38;5111488;28;20067;-82
2022/08/28 10:03:43;;;;;;;11.27;6.00;;;;;;;23.11;77.48;99093.97;5107042;28;20051;-83
2022/08/28 10:06:18;;;;;;;10.50;5.93;;;;;;;23.35;76.65;99089.91;5111150;28;20047;-83
2022/08/28 10:08:55;;;;;;;14.60;5.75;;;;;;;23.27;74.10;99082.94;5111062;28;20051;-83
2022/08/28 10:11:32;;;;;;;8.45;5.30;;;;;;;23.76;74.05;99098.38;5110728;28;20475;-82
2022/08/28 10:14:05;;;;;;;9.70;5.53;;;;;;;23.69;73.90;99081.97;5108376;28;20039;-83
2022/08/28 10:16:40;;;;;;;11.57;6.18;;;;;;;23.97;75.07;99082.66;5110751;28;20482;-83
2022/08/28 10:19:18;;;;;;;9.77;5.70;;;;;;;24.12;72.63;99090.16;5110907;28;20151;-83
2022/08/28 10:21:55;;;;;;;10.80;5.90;;;;;;;23.89;72.69;99081.22;5108788;28;20047;-83
2022/08/28 10:24:40;;;;;;;9.95;5.25;;;;;;;23.90;76.33;99079.28;5101587;28;20127;-84
2022/08/28 10:27:16;;;;;;;11.68;5.20;;;;;;;24.04;73.33;99085.97;5106216;28;20112;-82
2022/08/28 10:29:53;;;;;;;12.27;5.28;;;;;;;24.04;70.31;99085.97;5100799;28;20046;-82
2022/08/28 10:32:40;;;;;;;9.60;5.68;;;;;;;23.84;72.78;99089.50;5110085;28;20494;-83
2022/08/28 10:35:13;;;;;;;9.88;5.93;;;;;;;23.68;73.90;99074.75;5106957;28;20047;-82
2022/08/28 10:37:58;;;;;;;9.88;5.82;;;;;;;23.87;74.72;99074.28;5111529;28;20052;-83
2022/08/28 10:40:29;;;;;;;9.52;5.80;;;;;;;23.68;74.55;99081.16;5109300;28;20380;-83
2022/08/28 10:43:02;;;;;;;10.82;6.22;;;;;;;23.66;75.89;99085.31;5106733;28;20047;-83
2022/08/28 10:45:31;;;;;;;8.07;5.97;;;;;;;23.05;77.75;99074.75;5108540;28;20527;-83
2022/08/28 10:48:05;;;;;;;15.20;5.75;;;;;;;23.15;78.85;99085.94;5110507;28;20052;-83
2022/08/28 10:50:38;;;;;;;8.38;5.80;;;;;;;23.13;77.11;99071.53;5109602;28;20122;-83
2022/08/28 10:53:15;;;;;;;7.22;5.40;;;;;;;23.61;76.98;99086.13;5108911;28;20052;-83
2022/08/28 10:55:53;;;;;;;7.55;5.65;;;;;;;23.92;74.94;99086.25;5116267;28;20570;-83
2022/08/28 10:58:26;;;;;;;11.45;5.30;;;;;;;24.18;74.69;99089.88;5115923;28;20104;-83
2022/08/28 11:00:55;;;;;;;7.38;4.88;;;;;;;24.54;71.67;99073.22;5113060;28;20046;-84
2022/08/28 11:03:25;;;;;;;9.07;5.32;;;;;;;24.52;71.27;99081.00;5114650;28;20372;-84
2022/08/28 11:05:56;;;;;;;7.07;5.00;;;;;;;24.54;68.77;99086.28;5114029;28;20517;-83
2022/08/28 11:08:28;;;;;;;7.75;5.32;;;;;;;24.36;68.79;99063.50;5115006;28;20114;-83
2022/08/28 11:10:57;;;;;;;9.02;5.38;;;;;;;24.56;68.37;99072.94;5113160;28;20063;-83
2022/08/28 11:13:44;;;;;;;7.55;4.35;;;;;;;24.77;68.48;99067.38;5113959;28;20051;-83
2022/08/28 11:16:18;;;;;;;8.15;4.85;;;;;;;25.08;65.24;99091.22;5113219;27;20048;-84
2022/08/28 11:19:26;;;;;;;10.52;4.70;;;;;;;25.19;65.25;99088.41;5114296;28;20406;-82
2022/08/28 11:21:56;;;;;;;8.77;4.60;;;;;;;25.36;64.93;99072.22;5114053;28;20117;-82
2022/08/28 11:24:39;;;;;;;8.70;4.65;;;;;;;25.11;61.94;99083.41;5111589;28;20056;-81
2022/08/28 11:27:18;;;;;;;10.30;4.78;;;;;;;24.94;63.63;99075.41;5113824;28;20418;-81
2022/08/28 11:30:28;;;;;;;9.30;5.13;;;;;;;24.78;63.49;99089.34;5112473;28;20054;-81
2022/08/28 11:33:01;;;;;;;11.10;4.63;;;;;;;24.53;63.89;99096.53;5112962;28;20050;-81